Gorgan Airport

Airport
ICAO code: 
OING
IATA Code: 
GBT
Summary
ICAO Region: 
MID
Territory: 
Location: 
Amir Abad, Golestan
Serving: 
Grgan
Elevation: 
-24 ft
Coordinates: 
Aerial View: 
36° 54' 29.317" N, 54° 24' 35.846" E
Metar
Observation
OING 262000Z 24006KT 9999 SCT030 OVC100 27/22 Q1004
Station
Gorgan
Date/Time
2022-06-26 20:00:00
Wind direction
240°
Wind speed
06 kts
Lowest cloud amount
scattered clouds
Temperature
27°C
Dew point
22°C
Humidity
74%
QNH
1004 hPa
Weather condition
n/a

International airport 6km north of the city of Gorgan, Iran.

Climatology

Mediterranean climate (Köppen climate classification Csa).

Runways

Designator Length Width Surface Rops
14/32 2298 45 ASP No/No
Airport map: 
Aerial View: 

SKYbrary Partners:

Safety knowledge contributed by: